sensor_id;sensor_type;location;lat;lon;timestamp;pressure;altitude;pressure_sealevel;temperature;humidity
11343;BME280;5726;42.160;24.746;2023-12-22T00:02:18;98084.59;;;7.33;81.10
11343;BME280;5726;42.160;24.746;2023-12-22T00:04:44;98088.25;;;7.37;81.03
11343;BME280;5726;42.160;24.746;2023-12-22T00:07:09;98083.31;;;7.31;80.71
11343;BME280;5726;42.160;24.746;2023-12-22T00:09:35;98074.25;;;7.54;79.38
11343;BME280;5726;42.160;24.746;2023-12-22T00:12:00;98069.50;;;7.29;79.94
11343;BME280;5726;42.160;24.746;2023-12-22T00:14:26;98067.13;;;7.27;80.73
11343;BME280;5726;42.160;24.746;2023-12-22T00:16:51;98060.59;;;7.33;79.34
11343;BME280;5726;42.160;24.746;2023-12-22T00:19:17;98061.28;;;7.04;80.27
11343;BME280;5726;42.160;24.746;2023-12-22T00:21:42;98059.28;;;6.74;81.55
11343;BME280;5726;42.160;24.746;2023-12-22T00:24:08;98056.97;;;6.32;83.83
11343;BME280;5726;42.160;24.746;2023-12-22T00:26:33;98052.81;;;6.13;85.18
11343;BME280;5726;42.160;24.746;2023-12-22T00:28:59;98059.72;;;6.27;85.16
11343;BME280;5726;42.160;24.746;2023-12-22T00:31:24;98059.91;;;6.18;85.31
11343;BME280;5726;42.160;24.746;2023-12-22T00:33:50;98059.41;;;5.89;86.74
11343;BME280;5726;42.160;24.746;2023-12-22T00:36:15;98056.53;;;5.85;86.96
11343;BME280;5726;42.160;24.746;2023-12-22T00:38:43;98054.66;;;5.86;87.17
11343;BME280;5726;42.160;24.746;2023-12-22T00:41:10;98047.72;;;5.71;88.37
11343;BME280;5726;42.160;24.746;2023-12-22T00:43:36;98048.78;;;5.70;88.33
11343;BME280;5726;42.160;24.746;2023-12-22T00:46:01;98057.50;;;5.76;87.97
11343;BME280;5726;42.160;24.746;2023-12-22T00:48:27;98054.00;;;5.62;88.69
11343;BME280;5726;42.160;24.746;2023-12-22T00:50:53;98059.72;;;5.69;88.69
11343;BME280;5726;42.160;24.746;2023-12-22T00:53:19;98049.34;;;5.86;88.54
11343;BME280;5726;42.160;24.746;2023-12-22T00:55:44;98035.66;;;6.06;87.39
11343;BME280;5726;42.160;24.746;2023-12-22T00:58:11;98048.19;;;5.92;87.51
11343;BME280;5726;42.160;24.746;2023-12-22T01:00:36;98049.75;;;5.93;87.63
11343;BME280;5726;42.160;24.746;2023-12-22T01:03:02;98054.97;;;5.84;88.48
11343;BME280;5726;42.160;24.746;2023-12-22T01:05:28;98036.66;;;6.10;87.96
11343;BME280;5726;42.160;24.746;2023-12-22T01:07:53;98024.63;;;6.25;86.87
11343;BME280;5726;42.160;24.746;2023-12-22T01:10:19;98025.44;;;6.39;86.63
11343;BME280;5726;42.160;24.746;2023-12-22T01:12:44;98036.16;;;6.48;86.29
11343;BME280;5726;42.160;24.746;2023-12-22T01:15:10;98033.41;;;6.39;85.75
11343;BME280;5726;42.160;24.746;2023-12-22T01:17:35;98033.97;;;6.63;85.84
11343;BME280;5726;42.160;24.746;2023-12-22T01:20:01;98034.06;;;6.58;85.27
11343;BME280;5726;42.160;24.746;2023-12-22T01:22:27;98034.53;;;6.73;83.95
11343;BME280;5726;42.160;24.746;2023-12-22T01:24:52;98031.78;;;6.65;84.73
11343;BME280;5726;42.160;24.746;2023-12-22T01:27:18;98016.03;;;6.55;85.15
11343;BME280;5726;42.160;24.746;2023-12-22T01:29:45;98016.16;;;6.85;84.19
11343;BME280;5726;42.160;24.746;2023-12-22T01:32:10;98006.38;;;6.59;85.04
11343;BME280;5726;42.160;24.746;2023-12-22T01:34:36;98009.31;;;6.58;85.87
11343;BME280;5726;42.160;24.746;2023-12-22T01:37:01;98006.91;;;6.83;84.87
11343;BME280;5726;42.160;24.746;2023-12-22T01:39:27;97993.69;;;6.78;84.59
11343;BME280;5726;42.160;24.746;2023-12-22T01:41:52;97989.31;;;6.82;85.18
11343;BME280;5726;42.160;24.746;2023-12-22T01:44:18;97989.44;;;6.77;84.42
11343;BME280;5726;42.160;24.746;2023-12-22T01:46:43;97989.00;;;6.62;85.71
11343;BME280;5726;42.160;24.746;2023-12-22T01:49:10;97988.47;;;6.73;85.75
11343;BME280;5726;42.160;24.746;2023-12-22T01:51:37;97976.53;;;6.84;85.41
11343;BME280;5726;42.160;24.746;2023-12-22T01:54:05;97980.94;;;6.53;86.58
11343;BME280;5726;42.160;24.746;2023-12-22T01:56:32;97966.09;;;6.74;86.46
11343;BME280;5726;42.160;24.746;2023-12-22T01:58:59;97969.38;;;6.93;84.74
11343;BME280;5726;42.160;24.746;2023-12-22T02:01:26;97967.78;;;6.70;85.02
11343;BME280;5726;42.160;24.746;2023-12-22T02:03:53;97963.47;;;6.61;85.26
11343;BME280;5726;42.160;24.746;2023-12-22T02:06:20;97959.00;;;6.69;85.82
11343;BME280;5726;42.160;24.746;2023-12-22T02:08:49;97965.78;;;6.75;85.45
11343;BME280;5726;42.160;24.746;2023-12-22T02:11:15;97977.91;;;6.81;84.73
11343;BME280;5726;42.160;24.746;2023-12-22T02:13:42;97983.06;;;6.78;85.17
11343;BME280;5726;42.160;24.746;2023-12-22T02:18:47;97947.94;;;6.76;83.81
11343;BME280;5726;42.160;24.746;2023-12-22T02:21:15;97943.56;;;6.80;83.04
11343;BME280;5726;42.160;24.746;2023-12-22T02:23:40;97949.47;;;6.20;85.63
11343;BME280;5726;42.160;24.746;2023-12-22T02:26:12;97946.47;;;6.35;85.99
11343;BME280;5726;42.160;24.746;2023-12-22T02:28:40;97943.84;;;6.57;85.45
11343;BME280;5726;42.160;24.746;2023-12-22T02:31:22;97937.63;;;6.61;84.70
11343;BME280;5726;42.160;24.746;2023-12-22T02:33:53;97940.41;;;6.56;85.04
11343;BME280;5726;42.160;24.746;2023-12-22T02:36:21;97935.75;;;6.62;84.95
11343;BME280;5726;42.160;24.746;2023-12-22T02:38:48;97940.19;;;6.66;85.00
11343;BME280;5726;42.160;24.746;2023-12-22T02:41:14;97927.34;;;6.68;84.47
11343;BME280;5726;42.160;24.746;2023-12-22T02:43:40;97919.91;;;6.78;83.66
11343;BME280;5726;42.160;24.746;2023-12-22T02:46:13;97922.50;;;6.70;83.83
11343;BME280;5726;42.160;24.746;2023-12-22T02:48:40;97937.97;;;6.46;85.83
11343;BME280;5726;42.160;24.746;2023-12-22T02:51:05;97935.41;;;6.41;86.11
11343;BME280;5726;42.160;24.746;2023-12-22T02:53:31;97920.78;;;6.52;85.99
11343;BME280;5726;42.160;24.746;2023-12-22T02:55:56;97926.88;;;6.66;84.57
11343;BME280;5726;42.160;24.746;2023-12-22T02:58:22;97932.19;;;6.66;85.10
11343;BME280;5726;42.160;24.746;2023-12-22T03:00:47;97932.63;;;6.46;86.55
11343;BME280;5726;42.160;24.746;2023-12-22T03:03:13;97939.94;;;6.54;85.01
11343;BME280;5726;42.160;24.746;2023-12-22T03:05:38;97947.94;;;6.41;85.95
11343;BME280;5726;42.160;24.746;2023-12-22T03:08:04;97945.25;;;6.54;85.73
11343;BME280;5726;42.160;24.746;2023-12-22T03:10:30;97946.06;;;6.41;85.43
11343;BME280;5726;42.160;24.746;2023-12-22T03:12:55;97950.50;;;6.46;86.19
11343;BME280;5726;42.160;24.746;2023-12-22T03:15:21;97951.94;;;6.52;86.11
11343;BME280;5726;42.160;24.746;2023-12-22T03:17:47;97937.25;;;6.54;86.04
11343;BME280;5726;42.160;24.746;2023-12-22T03:20:12;97923.53;;;6.61;84.97
11343;BME280;5726;42.160;24.746;2023-12-22T03:22:38;97925.03;;;6.53;85.66
11343;BME280;5726;42.160;24.746;2023-12-22T03:25:03;97931.41;;;6.30;87.18
11343;BME280;5726;42.160;24.746;2023-12-22T03:27:29;97927.75;;;6.26;87.27
11343;BME280;5726;42.160;24.746;2023-12-22T03:29:54;97930.84;;;6.55;86.30
11343;BME280;5726;42.160;24.746;2023-12-22T03:32:20;97932.09;;;6.22;88.73
11343;BME280;5726;42.160;24.746;2023-12-22T03:34:45;97937.81;;;6.29;88.48
11343;BME280;5726;42.160;24.746;2023-12-22T03:37:11;97937.13;;;6.24;89.25
11343;BME280;5726;42.160;24.746;2023-12-22T03:39:36;97933.66;;;6.37;88.77
11343;BME280;5726;42.160;24.746;2023-12-22T03:42:02;97933.66;;;6.37;89.00
11343;BME280;5726;42.160;24.746;2023-12-22T03:44:28;97925.28;;;6.30;88.80
11343;BME280;5726;42.160;24.746;2023-12-22T03:46:53;97919.31;;;6.24;87.91
11343;BME280;5726;42.160;24.746;2023-12-22T03:49:19;97925.09;;;6.26;87.67
11343;BME280;5726;42.160;24.746;2023-12-22T03:51:45;97916.91;;;6.36;87.98
11343;BME280;5726;42.160;24.746;2023-12-22T03:54:10;97902.50;;;6.37;88.09
11343;BME280;5726;42.160;24.746;2023-12-22T03:56:37;97892.84;;;6.41;86.86
11343;BME280;5726;42.160;24.746;2023-12-22T03:59:02;97899.22;;;6.40;87.34
11343;BME280;5726;42.160;24.746;2023-12-22T04:01:28;97917.28;;;6.30;87.40
11343;BME280;5726;42.160;24.746;2023-12-22T04:03:53;97908.88;;;6.01;89.34
11343;BME280;5726;42.160;24.746;2023-12-22T04:06:19;97890.84;;;6.12;89.20
11343;BME280;5726;42.160;24.746;2023-12-22T04:08:45;97884.28;;;6.31;88.07
11343;BME280;5726;42.160;24.746;2023-12-22T04:11:11;97893.09;;;6.18;88.00
11343;BME280;5726;42.160;24.746;2023-12-22T04:13:37;97866.94;;;6.33;87.76
11343;BME280;5726;42.160;24.746;2023-12-22T04:16:02;97880.72;;;6.35;87.28
11343;BME280;5726;42.160;24.746;2023-12-22T04:18:30;97883.59;;;6.25;87.76
11343;BME280;5726;42.160;24.746;2023-12-22T04:20:56;97872.59;;;6.18;88.85
11343;BME280;5726;42.160;24.746;2023-12-22T04:23:22;97876.81;;;6.55;86.89
11343;BME280;5726;42.160;24.746;2023-12-22T04:25:48;97884.00;;;6.32;87.73
11343;BME280;5726;42.160;24.746;2023-12-22T04:28:13;97873.19;;;6.72;85.47
11343;BME280;5726;42.160;24.746;2023-12-22T04:30:39;97879.06;;;6.39;86.48
11343;BME280;5726;42.160;24.746;2023-12-22T04:33:05;97882.97;;;6.42;87.25
11343;BME280;5726;42.160;24.746;2023-12-22T04:35:30;97877.25;;;6.48;87.64
11343;BME280;5726;42.160;24.746;2023-12-22T04:37:56;97882.56;;;6.48;87.42
11343;BME280;5726;42.160;24.746;2023-12-22T04:40:21;97882.91;;;6.55;87.37
11343;BME280;5726;42.160;24.746;2023-12-22T04:42:47;97881.97;;;6.51;87.10
11343;BME280;5726;42.160;24.746;2023-12-22T04:45:12;97882.56;;;6.48;87.07
11343;BME280;5726;42.160;24.746;2023-12-22T04:47:38;97884.97;;;6.36;86.59
11343;BME280;5726;42.160;24.746;2023-12-22T04:50:04;97888.66;;;6.14;88.23
11343;BME280;5726;42.160;24.746;2023-12-22T04:52:29;97884.22;;;6.09;89.08
11343;BME280;5726;42.160;24.746;2023-12-22T04:54:55;97879.22;;;6.43;86.63
11343;BME280;5726;42.160;24.746;2023-12-22T04:57:21;97884.19;;;6.22;87.55
11343;BME280;5726;42.160;24.746;2023-12-22T04:59:47;97875.97;;;6.11;88.65
11343;BME280;5726;42.160;24.746;2023-12-22T05:02:14;97873.47;;;6.27;86.83
11343;BME280;5726;42.160;24.746;2023-12-22T05:04:39;97881.31;;;5.84;88.58
11343;BME280;5726;42.160;24.746;2023-12-22T05:07:05;97886.84;;;5.47;90.66
11343;BME280;5726;42.160;24.746;2023-12-22T05:09:33;97887.16;;;5.14;93.73
11343;BME280;5726;42.160;24.746;2023-12-22T05:11:59;97885.59;;;5.00;94.70
11343;BME280;5726;42.160;24.746;2023-12-22T05:14:24;97886.97;;;5.11;95.60
11343;BME280;5726;42.160;24.746;2023-12-22T05:16:50;97889.19;;;5.35;93.84
11343;BME280;5726;42.160;24.746;2023-12-22T05:19:20;97877.34;;;5.15;95.65
11343;BME280;5726;42.160;24.746;2023-12-22T05:21:45;97871.19;;;5.32;94.34
11343;BME280;5726;42.160;24.746;2023-12-22T05:24:11;97856.00;;;5.33;93.48
11343;BME280;5726;42.160;24.746;2023-12-22T05:26:36;97863.22;;;5.32;94.29
11343;BME280;5726;42.160;24.746;2023-12-22T05:29:02;97875.78;;;5.27;94.39
11343;BME280;5726;42.160;24.746;2023-12-22T05:31:27;97862.31;;;5.50;93.61
11343;BME280;5726;42.160;24.746;2023-12-22T05:33:53;97861.03;;;5.34;93.53
11343;BME280;5726;42.160;24.746;2023-12-22T05:36:19;97867.53;;;5.55;92.31
11343;BME280;5726;42.160;24.746;2023-12-22T05:38:44;97875.22;;;5.43;93.75
11343;BME280;5726;42.160;24.746;2023-12-22T05:41:10;97882.69;;;5.41;94.15
11343;BME280;5726;42.160;24.746;2023-12-22T05:43:35;97875.19;;;5.70;91.81
11343;BME280;5726;42.160;24.746;2023-12-22T05:46:01;97862.09;;;5.47;92.26
11343;BME280;5726;42.160;24.746;2023-12-22T05:48:27;97848.63;;;5.17;93.66
11343;BME280;5726;42.160;24.746;2023-12-22T05:50:53;97858.56;;;5.65;100.00
11343;BME280;5726;42.160;24.746;2023-12-22T05:53:21;97856.31;;;5.85;97.67
11343;BME280;5726;42.160;24.746;2023-12-22T05:55:46;97861.44;;;5.95;93.50
11343;BME280;5726;42.160;24.746;2023-12-22T05:58:12;97860.59;;;6.08;95.29
11343;BME280;5726;42.160;24.746;2023-12-22T06:00:37;97866.09;;;6.46;93.60
11343;BME280;5726;42.160;24.746;2023-12-22T06:03:03;97872.66;;;6.62;93.35
11343;BME280;5726;42.160;24.746;2023-12-22T06:05:29;97870.69;;;6.76;92.02
11343;BME280;5726;42.160;24.746;2023-12-22T06:07:55;97859.50;;;6.87;92.61
11343;BME280;5726;42.160;24.746;2023-12-22T06:10:20;97868.88;;;6.41;89.79
11343;BME280;5726;42.160;24.746;2023-12-22T06:12:46;97869.59;;;6.33;91.24
11343;BME280;5726;42.160;24.746;2023-12-22T06:15:11;97857.44;;;6.84;92.65
11343;BME280;5726;42.160;24.746;2023-12-22T06:17:37;97850.88;;;7.12;93.98
11343;BME280;5726;42.160;24.746;2023-12-22T06:20:03;97868.56;;;7.08;88.84
11343;BME280;5726;42.160;24.746;2023-12-22T06:22:29;97891.75;;;7.08;88.62
11343;BME280;5726;42.160;24.746;2023-12-22T06:24:54;97895.44;;;6.98;85.95
11343;BME280;5726;42.160;24.746;2023-12-22T06:27:20;97893.03;;;6.66;87.08
11343;BME280;5726;42.160;24.746;2023-12-22T06:29:45;97887.44;;;6.33;89.23
11343;BME280;5726;42.160;24.746;2023-12-22T06:32:11;97876.22;;;6.22;90.40
11343;BME280;5726;42.160;24.746;2023-12-22T06:34:37;97874.97;;;6.20;91.24
11343;BME280;5726;42.160;24.746;2023-12-22T06:37:03;97886.66;;;6.32;91.77
11343;BME280;5726;42.160;24.746;2023-12-22T06:39:28;97889.78;;;6.34;90.83
11343;BME280;5726;42.160;24.746;2023-12-22T06:41:54;97883.59;;;6.25;91.26
11343;BME280;5726;42.160;24.746;2023-12-22T06:44:19;97885.78;;;6.23;92.53
11343;BME280;5726;42.160;24.746;2023-12-22T06:46:45;97882.91;;;6.33;92.32
11343;BME280;5726;42.160;24.746;2023-12-22T06:49:10;97878.81;;;6.71;90.41
11343;BME280;5726;42.160;24.746;2023-12-22T06:51:36;97874.72;;;6.87;90.70
11343;BME280;5726;42.160;24.746;2023-12-22T06:54:02;97872.88;;;6.96;90.34
11343;BME280;5726;42.160;24.746;2023-12-22T06:56:32;97880.50;;;7.11;88.78
11343;BME280;5726;42.160;24.746;2023-12-22T06:58:59;97879.69;;;7.10;87.55
11343;BME280;5726;42.160;24.746;2023-12-22T07:01:25;97883.94;;;6.89;88.82
11343;BME280;5726;42.160;24.746;2023-12-22T07:03:51;97879.72;;;6.88;89.83
11343;BME280;5726;42.160;24.746;2023-12-22T07:06:22;97881.84;;;6.78;89.60
11343;BME280;5726;42.160;24.746;2023-12-22T07:11:39;97865.50;;;7.23;90.00
11343;BME280;5726;42.160;24.746;2023-12-22T07:14:04;97876.28;;;7.48;87.15
11343;BME280;5726;42.160;24.746;2023-12-22T07:16:30;97873.31;;;7.19;88.66
11343;BME280;5726;42.160;24.746;2023-12-22T07:18:55;97872.94;;;6.82;90.81
11343;BME280;5726;42.160;24.746;2023-12-22T07:21:21;97875.53;;;6.96;91.27
11343;BME280;5726;42.160;24.746;2023-12-22T07:23:47;97867.94;;;7.11;91.01
11343;BME280;5726;42.160;24.746;2023-12-22T07:26:12;97870.47;;;7.16;90.79
11343;BME280;5726;42.160;24.746;2023-12-22T07:28:38;97878.13;;;7.09;90.78
11343;BME280;5726;42.160;24.746;2023-12-22T07:31:03;97873.06;;;6.99;91.69
11343;BME280;5726;42.160;24.746;2023-12-22T07:33:30;97869.63;;;7.07;91.30
11343;BME280;5726;42.160;24.746;2023-12-22T07:35:56;97866.25;;;7.15;90.38
11343;BME280;5726;42.160;24.746;2023-12-22T07:38:21;97863.59;;;7.23;89.82
11343;BME280;5726;42.160;24.746;2023-12-22T07:40:47;97862.13;;;7.39;88.57
11343;BME280;5726;42.160;24.746;2023-12-22T07:43:13;97852.25;;;7.10;89.99
11343;BME280;5726;42.160;24.746;2023-12-22T07:45:39;97842.47;;;6.97;91.01
11343;BME280;5726;42.160;24.746;2023-12-22T07:48:05;97848.31;;;7.07;89.76
11343;BME280;5726;42.160;24.746;2023-12-22T07:50:30;97846.84;;;6.93;90.76
11343;BME280;5726;42.160;24.746;2023-12-22T07:52:56;97849.41;;;6.76;90.99
11343;BME280;5726;42.160;24.746;2023-12-22T07:55:21;97850.84;;;6.38;92.72
11343;BME280;5726;42.160;24.746;2023-12-22T07:57:47;97844.78;;;6.46;93.15
11343;BME280;5726;42.160;24.746;2023-12-22T08:00:13;97849.53;;;6.49;93.34
11343;BME280;5726;42.160;24.746;2023-12-22T08:02:38;97850.00;;;6.73;91.58
11343;BME280;5726;42.160;24.746;2023-12-22T08:05:04;97848.91;;;6.74;91.67
11343;BME280;5726;42.160;24.746;2023-12-22T08:07:30;97851.44;;;6.79;91.00
11343;BME280;5726;42.160;24.746;2023-12-22T08:09:56;97851.44;;;6.79;91.16
11343;BME280;5726;42.160;24.746;2023-12-22T08:12:22;97856.97;;;6.82;90.29
11343;BME280;5726;42.160;24.746;2023-12-22T08:14:48;97847.78;;;6.97;97.97
11343;BME280;5726;42.160;24.746;2023-12-22T08:17:13;97856.97;;;6.82;90.90
11343;BME280;5726;42.160;24.746;2023-12-22T08:19:39;97861.19;;;6.83;90.23
11343;BME280;5726;42.160;24.746;2023-12-22T08:22:09;97852.19;;;6.71;89.54
11343;BME280;5726;42.160;24.746;2023-12-22T08:24:35;97862.00;;;6.62;90.00
11343;BME280;5726;42.160;24.746;2023-12-22T08:27:01;97853.41;;;6.87;89.21
11343;BME280;5726;42.160;24.746;2023-12-22T08:29:26;97880.28;;;7.07;92.83
11343;BME280;5726;42.160;24.746;2023-12-22T08:31:52;97878.53;;;7.03;91.35
11343;BME280;5726;42.160;24.746;2023-12-22T08:34:18;97880.00;;;7.09;89.79
11343;BME280;5726;42.160;24.746;2023-12-22T08:36:44;97874.19;;;7.07;89.83
11343;BME280;5726;42.160;24.746;2023-12-22T08:39:09;97867.00;;;7.37;88.27
11343;BME280;5726;42.160;24.746;2023-12-22T08:41:35;97872.53;;;7.49;89.33
11343;BME280;5726;42.160;24.746;2023-12-22T08:44:06;97873.53;;;7.70;88.74
11343;BME280;5726;42.160;24.746;2023-12-22T08:46:32;97867.88;;;7.63;87.50
11343;BME280;5726;42.160;24.746;2023-12-22T08:48:58;97870.31;;;7.51;89.19
11343;BME280;5726;42.160;24.746;2023-12-22T08:51:27;97870.69;;;7.58;88.43
11343;BME280;5726;42.160;24.746;2023-12-22T08:53:53;97874.84;;;7.89;85.98
11343;BME280;5726;42.160;24.746;2023-12-22T08:56:21;97873.91;;;7.94;85.92
11343;BME280;5726;42.160;24.746;2023-12-22T08:58:47;97869.38;;;7.94;86.90
11343;BME280;5726;42.160;24.746;2023-12-22T09:01:16;97872.19;;;7.89;86.52
11343;BME280;5726;42.160;24.746;2023-12-22T09:03:42;97876.56;;;7.85;88.46
11343;BME280;5726;42.160;24.746;2023-12-22T09:06:21;97867.63;;;7.90;88.38
11343;BME280;5726;42.160;24.746;2023-12-22T09:08:48;97866.84;;;7.89;88.44
11343;BME280;5726;42.160;24.746;2023-12-22T09:11:16;97865.22;;;7.80;89.71
11343;BME280;5726;42.160;24.746;2023-12-22T09:13:42;97858.72;;;8.11;87.97
11343;BME280;5726;42.160;24.746;2023-12-22T09:16:09;97870.69;;;8.22;86.39
11343;BME280;5726;42.160;24.746;2023-12-22T09:18:35;97865.75;;;7.99;88.67
11343;BME280;5726;42.160;24.746;2023-12-22T09:21:01;97865.59;;;8.04;89.13
11343;BME280;5726;42.160;24.746;2023-12-22T09:23:26;97872.34;;;7.93;88.41
11343;BME280;5726;42.160;24.746;2023-12-22T09:25:52;97880.75;;;8.25;87.44
11343;BME280;5726;42.160;24.746;2023-12-22T09:28:18;97864.03;;;8.11;89.95
11343;BME280;5726;42.160;24.746;2023-12-22T09:30:43;97861.44;;;8.36;86.99
11343;BME280;5726;42.160;24.746;2023-12-22T09:33:09;97853.84;;;8.05;88.06
11343;BME280;5726;42.160;24.746;2023-12-22T09:35:35;97850.75;;;8.19;88.43
11343;BME280;5726;42.160;24.746;2023-12-22T09:38:01;97850.31;;;8.43;88.75
11343;BME280;5726;42.160;24.746;2023-12-22T09:40:27;97847.94;;;8.41;88.71
11343;BME280;5726;42.160;24.746;2023-12-22T09:42:55;97854.19;;;8.45;87.76
11343;BME280;5726;42.160;24.746;2023-12-22T09:45:22;97856.88;;;8.45;88.12
11343;BME280;5726;42.160;24.746;2023-12-22T09:47:50;97845.72;;;8.60;87.86
11343;BME280;5726;42.160;24.746;2023-12-22T09:50:17;97845.25;;;8.58;87.13
11343;BME280;5726;42.160;24.746;2023-12-22T09:52:43;97852.63;;;8.61;86.42
11343;BME280;5726;42.160;24.746;2023-12-22T09:55:10;97847.59;;;8.51;87.80
11343;BME280;5726;42.160;24.746;2023-12-22T09:57:37;97852.00;;;8.56;88.21
11343;BME280;5726;42.160;24.746;2023-12-22T10:00:07;97848.88;;;8.62;89.05
11343;BME280;5726;42.160;24.746;2023-12-22T10:02:33;97843.81;;;8.69;88.72
11343;BME280;5726;42.160;24.746;2023-12-22T10:05:00;97840.38;;;8.60;89.54
11343;BME280;5726;42.160;24.746;2023-12-22T10:07:26;97837.88;;;8.55;91.56
11343;BME280;5726;42.160;24.746;2023-12-22T10:09:52;97832.84;;;8.62;90.93
11343;BME280;5726;42.160;24.746;2023-12-22T10:12:21;97826.25;;;8.68;91.44
11343;BME280;5726;42.160;24.746;2023-12-22T10:14:47;97824.34;;;8.77;90.99
11343;BME280;5726;42.160;24.746;2023-12-22T10:17:14;97826.66;;;8.87;90.75
11343;BME280;5726;42.160;24.746;2023-12-22T10:19:40;97826.06;;;8.73;92.07
11343;BME280;5726;42.160;24.746;2023-12-22T10:22:05;97823.72;;;8.80;93.39
11343;BME280;5726;42.160;24.746;2023-12-22T10:24:42;97821.63;;;8.94;94.39
11343;BME280;5726;42.160;24.746;2023-12-22T10:27:08;97822.72;;;8.93;96.19
11343;BME280;5726;42.160;24.746;2023-12-22T10:29:34;97831.53;;;8.93;98.06
11343;BME280;5726;42.160;24.746;2023-12-22T10:32:04;97824.28;;;8.94;100.00
11343;BME280;5726;42.160;24.746;2023-12-22T10:34:30;97819.78;;;8.69;100.00
11343;BME280;5726;42.160;24.746;2023-12-22T10:37:01;97819.28;;;8.84;100.00
11343;BME280;5726;42.160;24.746;2023-12-22T10:39:30;97822.91;;;8.88;100.00
11343;BME280;5726;42.160;24.746;2023-12-22T10:41:58;97823.25;;;8.69;100.00
11343;BME280;5726;42.160;24.746;2023-12-22T10:44:28;97822.91;;;8.88;100.00
11343;BME280;5726;42.160;24.746;2023-12-22T10:46:54;97821.94;;;8.92;100.00
11343;BME280;5726;42.160;24.746;2023-12-22T10:49:21;97815.81;;;8.92;100.00
11343;BME280;5726;42.160;24.746;2023-12-22T10:51:47;97821.81;;;8.89;100.00
11343;BME280;5726;42.160;24.746;2023-12-22T10:54:13;97816.59;;;9.01;100.00
11343;BME280;5726;42.160;24.746;2023-12-22T10:56:41;97817.22;;;8.98;100.00
11343;BME280;5726;42.160;24.746;2023-12-22T10:59:07;97820.34;;;9.00;100.00
11343;BME280;5726;42.160;24.746;2023-12-22T11:01:35;97804.56;;;9.15;100.00
11343;BME280;5726;42.160;24.746;2023-12-22T11:04:09;97809.78;;;9.11;100.00
11343;BME280;5726;42.160;24.746;2023-12-22T11:06:37;97798.50;;;8.98;100.00
11343;BME280;5726;42.160;24.746;2023-12-22T11:09:07;97793.28;;;9.09;100.00
11343;BME280;5726;42.160;24.746;2023-12-22T11:11:35;97785.84;;;9.15;100.00
11343;BME280;5726;42.160;24.746;2023-12-22T11:14:01;97781.56;;;9.31;100.00
11343;BME280;5726;42.160;24.746;2023-12-22T11:16:31;97784.00;;;9.44;100.00
11343;BME280;5726;42.160;24.746;2023-12-22T11:18:59;97779.31;;;9.41;100.00
11343;BME280;5726;42.160;24.746;2023-12-22T11:21:25;97773.13;;;9.49;100.00
11343;BME280;5726;42.160;24.746;2023-12-22T11:23:51;97780.69;;;9.47;100.00
11343;BME280;5726;42.160;24.746;2023-12-22T11:26:18;97768.94;;;9.40;100.00
11343;BME280;5726;42.160;24.746;2023-12-22T11:28:51;97769.22;;;9.67;100.00
11343;BME280;5726;42.160;24.746;2023-12-22T11:31:17;97742.75;;;9.74;100.00
11343;BME280;5726;42.160;24.746;2023-12-22T11:33:47;97746.94;;;9.83;100.00
11343;BME280;5726;42.160;24.746;2023-12-22T11:36:14;97740.59;;;9.88;100.00
11343;BME280;5726;42.160;24.746;2023-12-22T11:38:40;97734.94;;;10.09;100.00
11343;BME280;5726;42.160;24.746;2023-12-22T11:41:10;97732.44;;;10.25;100.00
11343;BME280;5726;42.160;24.746;2023-12-22T11:43:41;97730.16;;;10.35;100.00
11343;BME280;5726;42.160;24.746;2023-12-22T11:46:08;97714.38;;;10.54;100.00
11343;BME280;5726;42.160;24.746;2023-12-22T11:48:34;97720.63;;;10.70;100.00
11343;BME280;5726;42.160;24.746;2023-12-22T11:51:00;97704.13;;;10.68;100.00
11343;BME280;5726;42.160;24.746;2023-12-22T11:53:30;97705.88;;;10.64;100.00
11343;BME280;5726;42.160;24.746;2023-12-22T11:56:04;97707.25;;;10.82;100.00
11343;BME280;5726;42.160;24.746;2023-12-22T11:58:43;97702.47;;;10.87;100.00
11343;BME280;5726;42.160;24.746;2023-12-22T12:01:17;97693.66;;;10.87;100.00
11343;BME280;5726;42.160;24.746;2023-12-22T12:03:54;97691.41;;;11.00;100.00
11343;BME280;5726;42.160;24.746;2023-12-22T12:08:58;97675.56;;;10.84;100.00
11343;BME280;5726;42.160;24.746;2023-12-22T12:14:36;97684.72;;;11.06;100.00
11343;BME280;5726;42.160;24.746;2023-12-22T12:17:07;97692.53;;;11.11;100.00
11343;BME280;5726;42.160;24.746;2023-12-22T12:19:39;97691.44;;;11.12;100.00
11343;BME280;5726;42.160;24.746;2023-12-22T12:22:08;97691.84;;;11.38;100.00
11343;BME280;5726;42.160;24.746;2023-12-22T12:24:36;97693.19;;;11.20;100.00
11343;BME280;5726;42.160;24.746;2023-12-22T12:27:02;97702.59;;;11.38;100.00
11343;BME280;5726;42.160;24.746;2023-12-22T12:29:28;97697.34;;;11.30;100.00
11343;BME280;5726;42.160;24.746;2023-12-22T12:32:02;97691.84;;;11.26;100.00
11343;BME280;5726;42.160;24.746;2023-12-22T12:34:28;97695.56;;;11.10;100.00
11343;BME280;5726;42.160;24.746;2023-12-22T12:36:54;97703.94;;;11.32;100.00
11343;BME280;5726;42.160;24.746;2023-12-22T12:39:22;97697.13;;;11.35;100.00
11343;BME280;5726;42.160;24.746;2023-12-22T12:41:53;97703.81;;;11.05;100.00
11343;BME280;5726;42.160;24.746;2023-12-22T12:44:20;97716.91;;;11.06;100.00
11343;BME280;5726;42.160;24.746;2023-12-22T12:46:45;97714.44;;;11.25;98.98
11343;BME280;5726;42.160;24.746;2023-12-22T12:49:12;97728.31;;;11.27;98.68
11343;BME280;5726;42.160;24.746;2023-12-22T12:51:47;97721.16;;;11.31;98.68
11343;BME280;5726;42.160;24.746;2023-12-22T12:54:14;97730.31;;;11.42;97.67
11343;BME280;5726;42.160;24.746;2023-12-22T12:56:41;97733.22;;;11.37;97.36
11343;BME280;5726;42.160;24.746;2023-12-22T12:59:14;97737.25;;;11.43;97.72
11343;BME280;5726;42.160;24.746;2023-12-22T13:01:46;97729.75;;;11.37;97.72
11343;BME280;5726;42.160;24.746;2023-12-22T13:04:14;97744.16;;;11.32;96.68
11343;BME280;5726;42.160;24.746;2023-12-22T13:06:50;97739.47;;;11.29;96.50
11343;BME280;5726;42.160;24.746;2023-12-22T13:09:16;97747.09;;;11.39;96.17
11343;BME280;5726;42.160;24.746;2023-12-22T13:11:43;97741.47;;;11.20;97.83
11343;BME280;5726;42.160;24.746;2023-12-22T13:14:11;97740.72;;;11.43;97.00
11343;BME280;5726;42.160;24.746;2023-12-22T13:16:39;97748.66;;;11.40;97.49